N31595 KBHM-
Flight info
| Callsign | N31595 |
|---|---|
| Flight time | N/A |
| Altitude | VFR |
| Route | VFR SE |
| Aircraft | TBM9/L-DOV/C |
Departure
| Time | 2026-04-25 00:22 |
|---|---|
| Airport | Birmingham-Shuttlesworth International Airport (KBHM) |
Arrival
| Time | N/A |
|---|---|
| Airport | - |
| Time | Latitude | Longitude | Altitude | Speed | Heading |
|---|---|---|---|---|---|
| 2026-04-25 00:15 | 33.56622 | -86.74271 | 638 ft | 0 kts | 2° |
| 2026-04-25 00:18 | 33.56626 | -86.74273 | 639 ft | 3 kts | 303° |
| 2026-04-25 00:18 | 33.56606 | -86.74325 | 638 ft | 10 kts | 261° |
| 2026-04-25 00:19 | 33.56630 | -86.74402 | 639 ft | 11 kts | 290° |
| 2026-04-25 00:19 | 33.56639 | -86.74502 | 638 ft | 13 kts | 270° |
| 2026-04-25 00:19 | 33.56655 | -86.74584 | 640 ft | 9 kts | 328° |
| 2026-04-25 00:19 | 33.56779 | -86.74563 | 644 ft | 22 kts | 51° |
| 2026-04-25 00:20 | 33.56837 | -86.74453 | 644 ft | 24 kts | 55° |
| 2026-04-25 00:20 | 33.56937 | -86.74278 | 642 ft | 26 kts | 55° |
| 2026-04-25 00:20 | 33.57044 | -86.74094 | 640 ft | 28 kts | 54° |
| 2026-04-25 00:20 | 33.57153 | -86.73903 | 643 ft | 24 kts | 55° |
| 2026-04-25 00:21 | 33.57253 | -86.73847 | 645 ft | 12 kts | 322° |
| 2026-04-25 00:21 | 33.57269 | -86.73861 | 645 ft | 0 kts | 322° |
| 2026-04-25 00:21 | 33.57275 | -86.73867 | 645 ft | 7 kts | 324° |
| 2026-04-25 00:21 | 33.57316 | -86.73968 | 647 ft | 19 kts | 242° |
| 2026-04-25 00:22 | 33.57160 | -86.74244 | 643 ft | 72 kts | 236° |
| 2026-04-25 00:22 | 33.56784 | -86.74930 | 818 ft | 115 kts | 235° |
| 2026-04-25 00:22 | 33.56302 | -86.75787 | 1337 ft | 129 kts | 234° |
| 2026-04-25 00:22 | 33.55671 | -86.76663 | 1804 ft | 151 kts | 215° |
| 2026-04-25 00:23 | 33.54583 | -86.77006 | 2176 ft | 176 kts | 178° |
| 2026-04-25 00:23 | 33.53405 | -86.76510 | 2586 ft | 185 kts | 150° |
| 2026-04-25 00:23 | 33.52274 | -86.75716 | 2968 ft | 190 kts | 157° |
| 2026-04-25 00:23 | 33.51043 | -86.75203 | 3364 ft | 190 kts | 171° |
| 2026-04-25 00:24 | 33.49684 | -86.75058 | 3498 ft | 206 kts | 180° |
| 2026-04-25 00:24 | 33.48207 | -86.75067 | 3514 ft | 217 kts | 182° |
| 2026-04-25 00:24 | 33.46672 | -86.75060 | 3508 ft | 224 kts | 181° |
| 2026-04-25 00:24 | 33.45096 | -86.75024 | 3509 ft | 228 kts | 180° |
| 2026-04-25 00:25 | 33.43507 | -86.74987 | 3505 ft | 230 kts | 180° |
| 2026-04-25 00:25 | 33.41908 | -86.74953 | 3500 ft | 229 kts | 180° |
| 2026-04-25 00:25 | 33.40312 | -86.74918 | 3499 ft | 230 kts | 180° |
| 2026-04-25 00:25 | 33.38714 | -86.74881 | 3489 ft | 230 kts | 181° |
| 2026-04-25 00:26 | 33.37109 | -86.74852 | 3489 ft | 231 kts | 181° |
| 2026-04-25 00:26 | 33.35502 | -86.74822 | 3494 ft | 232 kts | 180° |
| 2026-04-25 00:26 | 33.33886 | -86.74786 | 3485 ft | 232 kts | 181° |
| 2026-04-25 00:26 | 33.32273 | -86.74749 | 3476 ft | 231 kts | 180° |
| 2026-04-25 00:27 | 33.30666 | -86.74718 | 3476 ft | 230 kts | 180° |
| 2026-04-25 00:27 | 33.29062 | -86.74685 | 3474 ft | 230 kts | 180° |
| 2026-04-25 00:27 | 33.27463 | -86.74650 | 3475 ft | 230 kts | 180° |
| 2026-04-25 00:27 | 33.25864 | -86.74615 | 3476 ft | 230 kts | 180° |
| 2026-04-25 00:28 | 33.24261 | -86.74596 | 3475 ft | 230 kts | 181° |
| 2026-04-25 00:28 | 33.22655 | -86.74578 | 3477 ft | 231 kts | 180° |
| 2026-04-25 00:28 | 33.21053 | -86.74542 | 3476 ft | 230 kts | 180° |
| 2026-04-25 00:28 | 33.19450 | -86.74511 | 3474 ft | 230 kts | 181° |
| 2026-04-25 00:29 | 33.17857 | -86.74473 | 3567 ft | 228 kts | 180° |
| 2026-04-25 00:29 | 33.16283 | -86.74437 | 3753 ft | 224 kts | 181° |
| 2026-04-25 00:29 | 33.14793 | -86.74791 | 3963 ft | 219 kts | 205° |
| 2026-04-25 00:29 | 33.13450 | -86.75654 | 4164 ft | 219 kts | 210° |
| 2026-04-25 00:30 | 33.12108 | -86.76520 | 4364 ft | 221 kts | 206° |
| 2026-04-25 00:30 | 33.10737 | -86.77267 | 4565 ft | 221 kts | 204° |
| 2026-04-25 00:30 | 33.09317 | -86.78007 | 4758 ft | 224 kts | 204° |
| 2026-04-25 00:30 | 33.07886 | -86.78775 | 4946 ft | 227 kts | 205° |
| 2026-04-25 00:31 | 33.06447 | -86.79555 | 5141 ft | 228 kts | 205° |
| 2026-04-25 00:31 | 33.05001 | -86.80335 | 5332 ft | 229 kts | 205° |
| 2026-04-25 00:31 | 33.03550 | -86.81115 | 5555 ft | 228 kts | 205° |
| 2026-04-25 00:31 | 33.02106 | -86.81886 | 5825 ft | 227 kts | 205° |
| 2026-04-25 00:32 | 33.00668 | -86.82655 | 6093 ft | 226 kts | 205° |
| 2026-04-25 00:32 | 32.99239 | -86.83424 | 6361 ft | 226 kts | 205° |
| 2026-04-25 00:32 | 32.97807 | -86.84193 | 6614 ft | 226 kts | 205° |
| 2026-04-25 00:32 | 32.96381 | -86.84956 | 6945 ft | 223 kts | 205° |
| 2026-04-25 00:33 | 32.94970 | -86.85710 | 7297 ft | 221 kts | 206° |
| 2026-04-25 00:33 | 32.93568 | -86.86464 | 7658 ft | 221 kts | 206° |
| 2026-04-25 00:33 | 32.92168 | -86.87213 | 8016 ft | 221 kts | 206° |
| 2026-04-25 00:33 | 32.90768 | -86.87962 | 8385 ft | 221 kts | 206° |
| 2026-04-25 00:34 | 32.89350 | -86.88722 | 8757 ft | 221 kts | 206° |
| 2026-04-25 00:34 | 32.87944 | -86.89474 | 9136 ft | 222 kts | 206° |
| 2026-04-25 00:34 | 32.86536 | -86.90227 | 9514 ft | 222 kts | 207° |
| 2026-04-25 00:34 | 32.85143 | -86.90973 | 9880 ft | 223 kts | 207° |
| 2026-04-25 00:35 | 32.83727 | -86.91730 | 10224 ft | 224 kts | 207° |
| 2026-04-25 00:35 | 32.82285 | -86.92500 | 10583 ft | 225 kts | 207° |
| 2026-04-25 00:35 | 32.80852 | -86.93266 | 10938 ft | 228 kts | 207° |
| 2026-04-25 00:35 | 32.79400 | -86.94043 | 11297 ft | 230 kts | 208° |
| 2026-04-25 00:36 | 32.77910 | -86.94842 | 11424 ft | 242 kts | 208° |
| 2026-04-25 00:36 | 32.76365 | -86.95674 | 11431 ft | 246 kts | 208° |
| 2026-04-25 00:36 | 32.74797 | -86.96509 | 11432 ft | 252 kts | 207° |
| 2026-04-25 00:36 | 32.73173 | -86.97374 | 11431 ft | 259 kts | 207° |
| 2026-04-25 00:37 | 32.71515 | -86.98262 | 11432 ft | 263 kts | 207° |
| 2026-04-25 00:37 | 32.69836 | -86.99158 | 11433 ft | 266 kts | 207° |
| 2026-04-25 00:37 | 32.68141 | -87.00059 | 11430 ft | 267 kts | 207° |
| 2026-04-25 00:37 | 32.66438 | -87.00965 | 11424 ft | 269 kts | 207° |
| 2026-04-25 00:38 | 32.64730 | -87.01874 | 11435 ft | 270 kts | 207° |
| 2026-04-25 00:38 | 32.63018 | -87.02786 | 11434 ft | 270 kts | 207° |
| 2026-04-25 00:38 | 32.61308 | -87.03694 | 11436 ft | 270 kts | 207° |
| 2026-04-25 00:38 | 32.59596 | -87.04603 | 11432 ft | 269 kts | 207° |
| 2026-04-25 00:39 | 32.57886 | -87.05512 | 11435 ft | 269 kts | 207° |
| 2026-04-25 00:39 | 32.56175 | -87.06421 | 11435 ft | 269 kts | 207° |
| 2026-04-25 00:39 | 32.54462 | -87.07329 | 11435 ft | 270 kts | 207° |
| 2026-04-25 00:39 | 32.52750 | -87.08240 | 11437 ft | 270 kts | 207° |
| 2026-04-25 00:40 | 32.51034 | -87.09152 | 11433 ft | 270 kts | 207° |
| 2026-04-25 00:40 | 32.49317 | -87.10061 | 11435 ft | 270 kts | 207° |
| 2026-04-25 00:40 | 32.47602 | -87.10969 | 11437 ft | 270 kts | 207° |
| 2026-04-25 00:40 | 32.45889 | -87.11877 | 11444 ft | 270 kts | 207° |
| 2026-04-25 00:41 | 32.44175 | -87.12784 | 11441 ft | 270 kts | 207° |
| 2026-04-25 00:41 | 32.42463 | -87.13689 | 11442 ft | 269 kts | 207° |
| 2026-04-25 00:41 | 32.40752 | -87.14596 | 11437 ft | 269 kts | 207° |
| 2026-04-25 00:41 | 32.39042 | -87.15501 | 11440 ft | 269 kts | 207° |
| 2026-04-25 00:42 | 32.37331 | -87.16405 | 11442 ft | 269 kts | 207° |
| 2026-04-25 00:42 | 32.35622 | -87.17308 | 11434 ft | 269 kts | 207° |
| 2026-04-25 00:42 | 32.33913 | -87.18210 | 11435 ft | 269 kts | 207° |
| 2026-04-25 00:42 | 32.32205 | -87.19113 | 11440 ft | 269 kts | 207° |
| 2026-04-25 00:43 | 32.30495 | -87.20015 | 11434 ft | 269 kts | 207° |
| 2026-04-25 00:43 | 32.28788 | -87.20916 | 11431 ft | 269 kts | 207° |
| 2026-04-25 00:43 | 32.27080 | -87.21816 | 11426 ft | 269 kts | 207° |
| 2026-04-25 00:43 | 32.25371 | -87.22717 | 11422 ft | 269 kts | 207° |
| 2026-04-25 00:44 | 32.23661 | -87.23618 | 11416 ft | 269 kts | 207° |
| 2026-04-25 00:44 | 32.21954 | -87.24518 | 11411 ft | 269 kts | 207° |
| 2026-04-25 00:44 | 32.20243 | -87.25418 | 11403 ft | 269 kts | 207° |
| 2026-04-25 00:44 | 32.18534 | -87.26318 | 11396 ft | 269 kts | 207° |
| 2026-04-25 00:45 | 32.16824 | -87.27217 | 11395 ft | 269 kts | 207° |
| 2026-04-25 00:45 | 32.15117 | -87.28116 | 11387 ft | 269 kts | 207° |
| 2026-04-25 00:45 | 32.13405 | -87.29015 | 11378 ft | 269 kts | 207° |
| 2026-04-25 00:45 | 32.11696 | -87.29913 | 11371 ft | 269 kts | 207° |
| 2026-04-25 00:46 | 32.09988 | -87.30810 | 11366 ft | 269 kts | 207° |
| 2026-04-25 00:46 | 32.08281 | -87.31707 | 11364 ft | 269 kts | 207° |
| 2026-04-25 00:46 | 32.04857 | -87.33502 | 11376 ft | 269 kts | 207° |
| 2026-04-25 00:47 | 32.03148 | -87.34399 | 11376 ft | 269 kts | 207° |
| 2026-04-25 00:47 | 32.01438 | -87.35296 | 11386 ft | 269 kts | 207° |
| 2026-04-25 00:47 | 31.99748 | -87.36181 | 11381 ft | 269 kts | 207° |
| 2026-04-25 00:47 | 31.98036 | -87.37078 | 11392 ft | 269 kts | 207° |
| 2026-04-25 00:48 | 31.96326 | -87.37973 | 11394 ft | 269 kts | 207° |
| 2026-04-25 00:48 | 31.94614 | -87.38869 | 11403 ft | 269 kts | 207° |
| 2026-04-25 00:48 | 31.92902 | -87.39764 | 11406 ft | 269 kts | 207° |
| 2026-04-25 00:48 | 31.91193 | -87.40658 | 11408 ft | 269 kts | 207° |
| 2026-04-25 00:49 | 31.89478 | -87.41554 | 11411 ft | 269 kts | 207° |
| 2026-04-25 00:49 | 31.87744 | -87.42460 | 11417 ft | 269 kts | 207° |
| 2026-04-25 00:49 | 31.86032 | -87.43354 | 11425 ft | 269 kts | 207° |
| 2026-04-25 00:49 | 31.84320 | -87.44248 | 11425 ft | 269 kts | 207° |
| 2026-04-25 00:50 | 31.82608 | -87.45141 | 11431 ft | 269 kts | 207° |
| 2026-04-25 00:50 | 31.80896 | -87.46034 | 11436 ft | 269 kts | 207° |
| 2026-04-25 00:50 | 31.79187 | -87.46925 | 11436 ft | 269 kts | 207° |
| 2026-04-25 00:50 | 31.77496 | -87.47807 | 11439 ft | 269 kts | 207° |
| 2026-04-25 00:51 | 31.75785 | -87.48699 | 11443 ft | 269 kts | 207° |
| 2026-04-25 00:51 | 31.74071 | -87.49590 | 11444 ft | 269 kts | 207° |
| 2026-04-25 00:51 | 31.72358 | -87.50482 | 11445 ft | 269 kts | 207° |
| 2026-04-25 00:51 | 31.70645 | -87.51373 | 11443 ft | 269 kts | 207° |
| 2026-04-25 00:52 | 31.68932 | -87.52264 | 11445 ft | 270 kts | 207° |
| 2026-04-25 00:52 | 31.67217 | -87.53156 | 11449 ft | 270 kts | 207° |
| 2026-04-25 00:52 | 31.65502 | -87.54046 | 11446 ft | 270 kts | 207° |
| 2026-04-25 00:52 | 31.63761 | -87.54951 | 11447 ft | 270 kts | 207° |
| 2026-04-25 00:53 | 31.62044 | -87.55843 | 11446 ft | 270 kts | 207° |
| 2026-04-25 00:53 | 31.60352 | -87.56720 | 11439 ft | 270 kts | 207° |
| 2026-04-25 00:53 | 31.58638 | -87.57610 | 11446 ft | 270 kts | 207° |
| 2026-04-25 00:53 | 31.56921 | -87.58501 | 11446 ft | 270 kts | 207° |
| 2026-04-25 00:54 | 31.55207 | -87.59389 | 11446 ft | 270 kts | 207° |
| 2026-04-25 00:54 | 31.53490 | -87.60279 | 11446 ft | 270 kts | 207° |
| 2026-04-25 00:54 | 31.51777 | -87.61166 | 11450 ft | 269 kts | 207° |
| 2026-04-25 00:54 | 31.50062 | -87.62054 | 11451 ft | 269 kts | 207° |
| 2026-04-25 00:55 | 31.48344 | -87.62944 | 11448 ft | 270 kts | 207° |
| 2026-04-25 00:55 | 31.46628 | -87.63831 | 11450 ft | 270 kts | 207° |
| 2026-04-25 00:55 | 31.44913 | -87.64718 | 11450 ft | 270 kts | 207° |
| 2026-04-25 00:55 | 31.43196 | -87.65606 | 11438 ft | 270 kts | 207° |
| 2026-04-25 00:56 | 31.41480 | -87.66493 | 11441 ft | 270 kts | 207° |
| 2026-04-25 00:56 | 31.39764 | -87.67379 | 11450 ft | 270 kts | 207° |
| 2026-04-25 00:56 | 31.38049 | -87.68265 | 11448 ft | 269 kts | 207° |
| 2026-04-25 00:56 | 31.36335 | -87.69150 | 11447 ft | 269 kts | 207° |
| 2026-04-25 00:57 | 31.34934 | -87.69872 | 11448 ft | 269 kts | 207° |
| 2026-04-25 00:57 | 31.33222 | -87.70754 | 11448 ft | 269 kts | 207° |
| 2026-04-25 00:57 | 31.31506 | -87.71640 | 11445 ft | 269 kts | 207° |
| 2026-04-25 00:57 | 31.29793 | -87.72523 | 11446 ft | 269 kts | 207° |
| 2026-04-25 00:58 | 31.28080 | -87.73406 | 11438 ft | 269 kts | 207° |
| 2026-04-25 00:58 | 31.26365 | -87.74289 | 11448 ft | 269 kts | 207° |
| 2026-04-25 00:58 | 31.24652 | -87.75170 | 11448 ft | 269 kts | 207° |
| 2026-04-25 00:58 | 31.22939 | -87.76052 | 11447 ft | 269 kts | 207° |
| 2026-04-25 00:59 | 31.21224 | -87.76934 | 11451 ft | 269 kts | 207° |
| 2026-04-25 00:59 | 31.19510 | -87.77815 | 11382 ft | 270 kts | 208° |
| 2026-04-25 00:59 | 31.17814 | -87.78696 | 10570 ft | 259 kts | 207° |
| 2026-04-25 00:59 | 31.16192 | -87.79520 | 9773 ft | 250 kts | 206° |
| 2026-04-25 01:00 | 31.14616 | -87.80324 | 8903 ft | 245 kts | 206° |
| 2026-04-25 01:00 | 31.13072 | -87.81120 | 8060 ft | 241 kts | 206° |
| 2026-04-25 01:00 | 31.11547 | -87.81904 | 7240 ft | 237 kts | 205° |
| 2026-04-25 01:00 | 31.10050 | -87.82674 | 6437 ft | 234 kts | 205° |
| 2026-04-25 01:01 | 31.08572 | -87.83434 | 5606 ft | 230 kts | 205° |
| 2026-04-25 01:01 | 31.07128 | -87.84196 | 4981 ft | 221 kts | 205° |
| 2026-04-25 01:01 | 31.05824 | -87.84922 | 4956 ft | 198 kts | 214° |
| 2026-04-25 01:01 | 31.04859 | -87.85985 | 4948 ft | 186 kts | 227° |
| 2026-04-25 01:02 | 31.03987 | -87.87057 | 4949 ft | 180 kts | 224° |
| 2026-04-25 01:02 | 31.03081 | -87.88050 | 4953 ft | 177 kts | 222° |
| 2026-04-25 01:02 | 31.02173 | -87.89018 | 4954 ft | 176 kts | 222° |
| 2026-04-25 01:02 | 31.01580 | -87.89654 | 4945 ft | 175 kts | 222° |
| 2026-04-25 01:03 | 31.00383 | -87.90938 | 4950 ft | 175 kts | 222° |
| 2026-04-25 01:03 | 30.99489 | -87.91899 | 4948 ft | 175 kts | 222° |
| 2026-04-25 01:03 | 30.98896 | -87.92535 | 4951 ft | 175 kts | 222° |
| 2026-04-25 01:03 | 30.98001 | -87.93494 | 4956 ft | 174 kts | 222° |
| 2026-04-25 01:04 | 30.97108 | -87.94450 | 4953 ft | 175 kts | 222° |
| 2026-04-25 01:04 | 30.96215 | -87.95407 | 4950 ft | 174 kts | 222° |
| 2026-04-25 01:04 | 30.95322 | -87.96364 | 4958 ft | 174 kts | 222° |
| 2026-04-25 01:04 | 30.94432 | -87.97318 | 4960 ft | 174 kts | 222° |
| 2026-04-25 01:05 | 30.93539 | -87.98273 | 4963 ft | 174 kts | 222° |
| 2026-04-25 01:05 | 30.92646 | -87.99229 | 4964 ft | 175 kts | 222° |
| 2026-04-25 01:05 | 30.91763 | -88.00175 | 4959 ft | 162 kts | 222° |
| 2026-04-25 01:05 | 30.91027 | -88.00964 | 4955 ft | 129 kts | 221° |
| 2026-04-25 01:06 | 30.90359 | -88.01666 | 4965 ft | 141 kts | 220° |
| 2026-04-25 01:06 | 30.89582 | -88.02491 | 4976 ft | 159 kts | 223° |
| 2026-04-25 01:06 | 30.88740 | -88.03402 | 4979 ft | 170 kts | 222° |
| 2026-04-25 01:06 | 30.87858 | -88.04351 | 4985 ft | 171 kts | 222° |
| 2026-04-25 01:07 | 30.86965 | -88.05240 | 4982 ft | 167 kts | 212° |
| 2026-04-25 01:07 | 30.85882 | -88.05634 | 4981 ft | 164 kts | 183° |
| 2026-04-25 01:07 | 30.84744 | -88.05434 | 4872 ft | 167 kts | 166° |
| 2026-04-25 01:07 | 30.83640 | -88.05006 | 4812 ft | 166 kts | 166° |
| 2026-04-25 01:08 | 30.82493 | -88.04732 | 4899 ft | 172 kts | 172° |
| 2026-04-25 01:08 | 30.81329 | -88.04494 | 5337 ft | 166 kts | 176° |
| 2026-04-25 01:08 | 30.80196 | -88.04675 | 5673 ft | 175 kts | 207° |
| 2026-04-25 01:08 | 30.79411 | -88.05796 | 5822 ft | 194 kts | 254° |
| 2026-04-25 01:09 | 30.79347 | -88.07482 | 5653 ft | 218 kts | 272° |
| 2026-04-25 01:09 | 30.79415 | -88.09287 | 5513 ft | 230 kts | 272° |
| 2026-04-25 01:09 | 30.79489 | -88.11182 | 5315 ft | 238 kts | 272° |
| 2026-04-25 01:09 | 30.79570 | -88.13115 | 5111 ft | 241 kts | 272° |
| 2026-04-25 01:10 | 30.79656 | -88.15067 | 4898 ft | 243 kts | 272° |
| 2026-04-25 01:10 | 30.79742 | -88.17029 | 4690 ft | 243 kts | 271° |
| 2026-04-25 01:10 | 30.79535 | -88.18937 | 4438 ft | 230 kts | 254° |
| 2026-04-25 01:10 | 30.79030 | -88.20636 | 4199 ft | 218 kts | 244° |
| 2026-04-25 01:11 | 30.78363 | -88.22174 | 3968 ft | 202 kts | 241° |
| 2026-04-25 01:11 | 30.77800 | -88.23594 | 3600 ft | 188 kts | 250° |
| 2026-04-25 01:11 | 30.77699 | -88.25005 | 3480 ft | 168 kts | 275° |
| 2026-04-25 01:11 | 30.78203 | -88.26200 | 3138 ft | 168 kts | 312° |
| 2026-04-25 01:12 | 30.79097 | -88.27074 | 2795 ft | 163 kts | 317° |
| 2026-04-25 01:12 | 30.79916 | -88.27889 | 2733 ft | 150 kts | 317° |
| 2026-04-25 01:12 | 30.80698 | -88.28655 | 2659 ft | 145 kts | 317° |
| 2026-04-25 01:12 | 30.81457 | -88.29400 | 2582 ft | 141 kts | 310° |
| 2026-04-25 01:13 | 30.81718 | -88.30462 | 2221 ft | 138 kts | 259° |
| 2026-04-25 01:13 | 30.81455 | -88.31494 | 1966 ft | 131 kts | 246° |
| 2026-04-25 01:13 | 30.81137 | -88.32456 | 1832 ft | 128 kts | 240° |
| 2026-04-25 01:13 | 30.80757 | -88.33325 | 1641 ft | 115 kts | 227° |
| 2026-04-25 01:14 | 30.80158 | -88.33821 | 1435 ft | 104 kts | 183° |
| 2026-04-25 01:14 | 30.79612 | -88.33255 | 1381 ft | 119 kts | 123° |
| 2026-04-25 01:14 | 30.79026 | -88.32717 | 1411 ft | 98 kts | 151° |
| 2026-04-25 01:14 | 30.78503 | -88.32294 | 1513 ft | 92 kts | 149° |
| 2026-04-25 01:15 | 30.77961 | -88.31858 | 1653 ft | 96 kts | 149° |
| 2026-04-25 01:15 | 30.77405 | -88.31409 | 1762 ft | 98 kts | 148° |
| 2026-04-25 01:15 | 30.76839 | -88.30948 | 1812 ft | 102 kts | 147° |
| 2026-04-25 01:15 | 30.76260 | -88.30466 | 1685 ft | 101 kts | 149° |
| 2026-04-25 01:16 | 30.75699 | -88.29995 | 1555 ft | 99 kts | 146° |
| 2026-04-25 01:16 | 30.75139 | -88.29532 | 1418 ft | 97 kts | 147° |
| 2026-04-25 01:16 | 30.74612 | -88.29077 | 1294 ft | 92 kts | 146° |
| 2026-04-25 01:16 | 30.74094 | -88.28654 | 1177 ft | 94 kts | 147° |
| 2026-04-25 01:17 | 30.73540 | -88.28175 | 1049 ft | 101 kts | 144° |
| 2026-04-25 01:17 | 30.73015 | -88.27724 | 920 ft | 86 kts | 146° |
| 2026-04-25 01:17 | 30.72518 | -88.27340 | 814 ft | 88 kts | 143° |
| 2026-04-25 01:17 | 30.72039 | -88.26933 | 678 ft | 83 kts | 143° |
| 2026-04-25 01:18 | 30.71556 | -88.26496 | 599 ft | 94 kts | 141° |
| 2026-04-25 01:18 | 30.71037 | -88.26067 | 434 ft | 85 kts | 145° |
| 2026-04-25 01:18 | 30.70568 | -88.25679 | 351 ft | 88 kts | 144° |
| 2026-04-25 01:18 | 30.70107 | -88.25298 | 220 ft | 69 kts | 145° |
| 2026-04-25 01:19 | 30.69871 | -88.25102 | 213 ft | 23 kts | 147° |
| 2026-04-25 01:19 | 30.69778 | -88.25024 | 213 ft | 13 kts | 136° |
| 2026-04-25 01:19 | 30.69620 | -88.24887 | 214 ft | 34 kts | 143° |
| 2026-04-25 01:19 | 30.69452 | -88.24748 | 216 ft | 19 kts | 153° |
| 2026-04-25 01:20 | 30.69371 | -88.24801 | 216 ft | 18 kts | 227° |
| 2026-04-25 01:20 | 30.69352 | -88.24824 | 216 ft | 9 kts | 219° |
| 2026-04-25 01:20 | 30.69258 | -88.24788 | 219 ft | 19 kts | 144° |
| 2026-04-25 01:20 | 30.69107 | -88.24674 | 219 ft | 30 kts | 144° |
| 2026-04-25 01:21 | 30.68934 | -88.24530 | 219 ft | 31 kts | 144° |
| 2026-04-25 01:21 | 30.68755 | -88.24382 | 217 ft | 31 kts | 144° |
| 2026-04-25 01:21 | 30.68612 | -88.24261 | 217 ft | 19 kts | 144° |
| 2026-04-25 01:21 | 30.68502 | -88.24242 | 218 ft | 16 kts | 200° |
| 2026-04-25 01:22 | 30.68401 | -88.24299 | 220 ft | 18 kts | 230° |
| 2026-04-25 01:22 | 30.68394 | -88.24496 | 219 ft | 28 kts | 268° |
| 2026-04-25 01:22 | 30.68329 | -88.24666 | 220 ft | 24 kts | 224° |
| 2026-04-25 01:22 | 30.68246 | -88.24779 | 224 ft | 4 kts | 203° |
| 2026-04-25 01:23 | 30.68233 | -88.24780 | 224 ft | 0 kts | 177° |